createdAt,value
2023-04-05T00:03:24.404Z,76.80
2023-04-05T00:08:28.491Z,77.70
2023-04-05T00:13:30.661Z,77.00
2023-04-05T00:18:34.456Z,76.50
2023-04-05T00:23:39.812Z,76.20
2023-04-05T00:28:41.791Z,75.30
2023-04-05T00:33:43.983Z,76.60
2023-04-05T00:38:47.169Z,76.70
2023-04-05T00:43:49.453Z,76.70
2023-04-05T00:48:51.328Z,76.70
2023-04-05T00:53:53.973Z,77.20
2023-04-05T00:58:55.912Z,76.80
2023-04-05T01:04:02.907Z,76.00
2023-04-05T01:09:10.992Z,77.30
2023-04-05T01:14:12.893Z,77.10
2023-04-05T01:19:14.925Z,77.80
2023-04-05T01:24:32.392Z,78.00
2023-04-05T01:30:15.746Z,77.50
2023-04-05T01:35:41.356Z,76.70
2023-04-05T01:40:43.650Z,77.10
2023-04-05T01:45:46.378Z,78.00
2023-04-05T01:50:48.398Z,77.60
2023-04-05T01:55:50.306Z,77.10
2023-04-05T02:00:55.168Z,78.00
2023-04-05T02:05:57.491Z,77.20
2023-04-05T02:10:59.329Z,78.40
2023-04-05T02:16:01.497Z,78.60
2023-04-05T02:21:05.407Z,79.50
2023-04-05T02:26:07.279Z,79.50
2023-04-05T02:31:11.174Z,78.40
2023-04-05T02:36:15.906Z,78.70
2023-04-05T02:41:17.790Z,78.60
2023-04-05T02:46:19.697Z,78.00
2023-04-05T02:51:21.609Z,79.50
2023-04-05T02:56:23.419Z,78.70
2023-04-05T03:01:25.723Z,78.50
2023-04-05T03:06:27.724Z,79.80
2023-04-05T03:11:29.539Z,79.50
2023-04-05T03:16:31.598Z,80.20
2023-04-05T03:21:33.975Z,79.50
2023-04-05T03:26:35.821Z,81.60
2023-04-05T03:31:37.934Z,80.50
2023-04-05T03:36:42.714Z,80.30
2023-04-05T03:41:45.029Z,80.90
2023-04-05T03:46:46.842Z,81.90
2023-04-05T03:51:48.671Z,81.50
2023-04-05T03:56:50.604Z,82.00
2023-04-05T04:01:53.325Z,81.80
2023-04-05T04:06:56.418Z,81.40
2023-04-05T04:11:58.352Z,82.30
2023-04-05T04:17:00.482Z,81.80
2023-04-05T04:22:02.549Z,84.10
2023-04-05T04:27:06.871Z,82.10
2023-04-05T04:32:08.837Z,81.40
2023-04-05T04:37:17.921Z,81.50
2023-04-05T04:42:22.703Z,81.30
2023-04-05T04:47:24.635Z,81.70
2023-04-05T04:52:26.479Z,81.30
2023-04-05T04:57:28.923Z,81.60
2023-04-05T05:02:31.421Z,81.20
2023-04-05T05:07:33.407Z,82.00
2023-04-05T05:12:38.884Z,82.10
2023-04-05T05:17:40.856Z,81.80
2023-04-05T05:22:42.685Z,81.20
2023-04-05T05:27:44.502Z,79.70
2023-04-05T05:32:46.571Z,78.90
2023-04-05T05:37:48.562Z,79.20
2023-04-05T05:42:50.815Z,80.00
2023-04-05T05:47:52.711Z,80.60
2023-04-05T05:52:54.692Z,80.10
2023-04-05T05:57:56.661Z,79.40
2023-04-05T06:02:59.425Z,78.40
2023-04-05T06:08:01.518Z,78.00
2023-04-05T06:13:03.351Z,76.60
2023-04-05T06:18:05.417Z,76.40
2023-04-05T06:23:07.821Z,76.40
2023-04-05T06:28:09.633Z,75.10
2023-04-05T06:33:11.566Z,75.70
2023-04-05T06:38:13.478Z,75.40
2023-04-05T06:43:15.316Z,75.50
2023-04-05T06:48:17.366Z,75.10
2023-04-05T06:53:19.738Z,74.90
2023-04-05T06:58:21.776Z,74.80
2023-04-05T07:03:23.766Z,74.10
2023-04-05T07:08:27.121Z,74.00
2023-04-05T07:13:29.021Z,74.30
2023-04-05T07:18:31.058Z,73.10
2023-04-05T07:23:32.944Z,72.50
2023-04-05T07:28:35.876Z,71.20
2023-04-05T07:33:37.960Z,68.80
2023-04-05T07:38:39.768Z,68.00
2023-04-05T07:43:41.954Z,66.80
2023-04-05T07:48:43.919Z,61.60
2023-04-05T07:53:45.820Z,62.40
2023-04-05T07:58:48.092Z,60.00
2023-04-05T08:03:50.039Z,61.20
2023-04-05T08:08:51.977Z,61.20
2023-04-05T08:13:54.452Z,59.50
2023-04-05T08:18:56.451Z,58.80
2023-04-05T08:23:58.861Z,57.20
2023-04-05T08:29:00.882Z,57.60
2023-04-05T08:34:02.770Z,57.70
2023-04-05T08:39:04.623Z,58.10
2023-04-05T08:44:09.748Z,58.40
2023-04-05T08:49:11.730Z,57.60
2023-04-05T08:54:14.766Z,57.30
2023-04-05T08:59:17.653Z,56.00
2023-04-05T09:04:27.272Z,54.60
2023-04-05T09:09:32.885Z,53.20
2023-04-05T09:14:35.082Z,52.50
2023-04-05T09:19:37.149Z,53.20
2023-04-05T09:24:41.751Z,51.50
2023-04-05T09:29:48.572Z,50.90
2023-04-05T09:34:53.991Z,51.60
2023-04-05T09:40:03.903Z,50.40
2023-04-05T09:45:07.297Z,49.80
2023-04-05T09:50:15.030Z,49.60
2023-04-05T09:55:28.002Z,50.80
2023-04-05T10:00:32.206Z,48.60
2023-04-05T10:05:34.137Z,50.20
2023-04-05T10:10:39.323Z,48.00
2023-04-05T10:15:46.348Z,48.10
2023-04-05T10:20:50.594Z,50.40
2023-04-05T10:25:53.525Z,49.00
2023-04-05T10:31:11.971Z,48.20
2023-04-05T10:36:31.530Z,49.40
2023-04-05T10:41:48.498Z,47.70
2023-04-05T10:46:51.006Z,48.70
2023-04-05T10:51:53.360Z,47.00
2023-04-05T10:56:56.613Z,45.90
2023-04-05T11:01:59.080Z,47.70
2023-04-05T11:07:27.205Z,46.00
2023-04-05T11:12:47.380Z,46.90
2023-04-05T11:18:05.243Z,48.70
2023-04-05T11:23:07.401Z,50.30
2023-04-05T11:28:09.324Z,49.80
2023-04-05T11:33:11.224Z,50.00
2023-04-05T11:38:21.974Z,49.90
2023-04-05T11:43:27.855Z,48.40
2023-04-05T11:48:29.719Z,46.10
2023-04-05T11:53:31.494Z,47.30
2023-04-05T11:58:33.285Z,48.40
2023-04-05T12:03:36.468Z,48.10
2023-04-05T12:08:43.330Z,48.10
2023-04-05T12:13:46.149Z,49.80
2023-04-05T12:18:54.102Z,47.20
2023-04-05T12:23:56.111Z,48.00
2023-04-05T12:28:59.174Z,48.70
2023-04-05T12:34:00.998Z,48.30
2023-04-05T12:39:07.169Z,47.70
2023-04-05T12:44:15.687Z,48.60
2023-04-05T12:49:18.727Z,48.90
2023-04-05T12:54:23.172Z,47.70
2023-04-05T12:59:25.078Z,48.70
2023-04-05T13:04:26.990Z,48.20
2023-04-05T13:09:28.774Z,47.40
2023-04-05T13:14:30.628Z,48.50
2023-04-05T13:19:32.431Z,49.10
2023-04-05T13:24:37.139Z,48.40
2023-04-05T13:29:38.996Z,49.10
2023-04-05T13:34:40.787Z,49.40
2023-04-05T13:39:42.624Z,48.80
2023-04-05T13:44:44.505Z,49.10
2023-04-05T13:49:46.698Z,48.80
2023-04-05T13:54:48.502Z,49.20
2023-04-05T14:00:04.859Z,49.90
2023-04-05T14:05:09.627Z,49.60
2023-04-05T14:10:11.683Z,49.80
2023-04-05T14:15:13.607Z,50.20
2023-04-05T14:20:15.651Z,50.20
2023-04-05T14:25:17.672Z,49.20
2023-04-05T14:30:20.469Z,49.50
2023-04-05T14:35:22.336Z,50.30
2023-04-05T14:40:24.230Z,50.70
2023-04-05T14:45:28.818Z,50.00
2023-04-05T14:50:32.528Z,50.30
2023-04-05T14:55:34.389Z,50.00
2023-04-05T15:00:36.234Z,50.00
2023-04-05T15:05:38.113Z,49.70
2023-04-05T15:10:40.536Z,50.00
2023-04-05T15:15:42.510Z,50.30
2023-04-05T15:20:44.383Z,50.80
2023-04-05T15:25:46.502Z,51.10
2023-04-05T15:30:48.511Z,51.20
2023-04-05T15:35:50.402Z,51.10
2023-04-05T15:40:52.650Z,51.40
2023-04-05T15:45:54.613Z,51.60
2023-04-05T15:50:56.869Z,51.40
2023-04-05T15:55:58.803Z,52.10
2023-04-05T16:01:00.962Z,52.00
2023-04-05T16:06:02.900Z,52.80
2023-04-05T16:11:05.160Z,51.90
2023-04-05T16:16:07.129Z,52.50
2023-04-05T16:21:09.096Z,53.30
2023-04-05T16:26:11.283Z,53.60
2023-04-05T16:31:13.356Z,53.90
2023-04-05T16:36:15.545Z,53.90
2023-04-05T16:41:17.620Z,54.20
2023-04-05T16:46:19.512Z,54.50
2023-04-05T16:51:24.163Z,55.10
2023-04-05T16:56:25.975Z,55.10
2023-04-05T17:01:27.846Z,54.90
2023-04-05T17:06:29.839Z,55.30
2023-04-05T17:11:36.269Z,55.60
2023-04-05T17:16:39.401Z,55.30
2023-04-05T17:21:41.406Z,55.30
2023-04-05T17:26:46.365Z,56.00
2023-04-05T17:31:48.895Z,56.20
2023-04-05T17:37:16.336Z,56.60
2023-04-05T17:42:18.538Z,56.40
2023-04-05T17:47:20.466Z,57.10
2023-04-05T17:52:22.773Z,57.10
2023-04-05T17:57:24.686Z,57.20
2023-04-05T18:02:28.002Z,57.40
2023-04-05T18:07:29.980Z,58.10
2023-04-05T18:12:33.035Z,58.30
2023-04-05T18:17:34.939Z,59.30
2023-04-05T18:22:37.221Z,59.70
2023-04-05T18:27:39.584Z,60.10
2023-04-05T18:32:41.600Z,60.40
2023-04-05T18:37:46.337Z,60.70
2023-04-05T18:42:48.214Z,61.10
2023-04-05T18:47:50.676Z,61.60
2023-04-05T18:52:52.763Z,61.90
2023-04-05T18:57:54.806Z,66.40
2023-04-05T19:02:57.186Z,66.90
2023-04-05T19:07:59.111Z,66.10
2023-04-05T19:13:01.111Z,65.50
2023-04-05T19:18:02.977Z,65.10
2023-04-05T19:23:04.864Z,64.50
2023-04-05T19:28:07.531Z,64.30
2023-04-05T19:33:09.765Z,65.10
2023-04-05T19:38:14.465Z,65.10
2023-04-05T19:43:17.442Z,64.30
2023-04-05T19:48:35.875Z,64.80
2023-04-05T19:53:45.652Z,65.10
2023-04-05T19:58:49.799Z,66.70
2023-04-05T20:03:51.838Z,68.10
2023-04-05T20:08:59.087Z,68.60
2023-04-05T20:14:02.131Z,70.40
2023-04-05T20:19:06.708Z,70.30
2023-04-05T20:24:10.334Z,70.60
2023-04-05T20:29:15.986Z,71.80
2023-04-05T20:34:23.904Z,72.80
2023-04-05T20:39:30.459Z,75.00
2023-04-05T20:44:32.375Z,74.90
2023-04-05T20:49:34.560Z,75.60
2023-04-05T20:54:36.816Z,75.40
2023-04-05T20:59:38.863Z,75.50
2023-04-05T21:04:41.587Z,76.10
2023-04-05T21:09:43.462Z,77.40
2023-04-05T21:14:45.363Z,75.60
2023-04-05T21:19:50.125Z,77.10
2023-04-05T21:24:51.941Z,79.80
2023-04-05T21:29:53.890Z,79.50
2023-04-05T21:34:55.960Z,79.90
2023-04-05T21:39:57.891Z,78.10
2023-04-05T21:44:59.825Z,78.90
2023-04-05T21:50:02.156Z,77.40
2023-04-05T21:55:07.372Z,77.40
2023-04-05T22:00:12.567Z,77.70
2023-04-05T22:05:25.699Z,78.50
2023-04-05T22:10:36.551Z,78.20
2023-04-05T22:15:38.372Z,78.30
2023-04-05T22:20:40.702Z,78.60
2023-04-05T22:25:42.632Z,79.90
2023-04-05T22:30:44.658Z,79.40
2023-04-05T22:35:46.577Z,80.20
2023-04-05T22:40:49.527Z,78.80
2023-04-05T22:45:52.172Z,79.40
2023-04-05T22:50:54.069Z,79.90
2023-04-05T22:56:05.519Z,80.40
2023-04-05T23:01:07.917Z,80.60
2023-04-05T23:06:10.012Z,81.10
2023-04-05T23:11:11.882Z,81.30
2023-04-05T23:16:13.875Z,81.60
2023-04-05T23:21:16.375Z,80.80
2023-04-05T23:26:18.181Z,81.50
2023-04-05T23:31:20.105Z,82.00
2023-04-05T23:36:22.098Z,81.50
2023-04-05T23:41:24.179Z,82.10
2023-04-05T23:46:26.501Z,83.30
2023-04-05T23:51:28.461Z,82.70
2023-04-05T23:56:30.516Z,82.10
